»·PEaware :: TPX534 KNYL-KLAS

TPX534 :: KNYL-KLAS

FLIGHT INFORMATION

Flight Status: Arrived
Operator: ATP Experience
More flights by this operator :: More flights under this callsign
Pilot: Dave P. (45)
Aircraft: BOEING 737-600
(B736)
More flights by this aircraft type
Origin: KNYL Yuma MCAS/Yuma Intl
United States
Destination: KLAS McCarran Intl
United States
More flights between these airports :: More routes between these airports
Route: BZA BLH IGM TYSSN5
File this flight plan on PilotEdge
Remarks: PBN / A1B1C1D1S1S2 DOF / 181113 REG / N736PM OPR / TPX PER / C RMK / TCAS SIMBRIEF
Altitude:
(Current/Filed)
28,000ft
Speed:
(Current/Filed)
464kts
Departed: 12-Nov-18 05:15 PM
Arrived: 12-Nov-18 06:03 PM
Distance/Time
Traveled:
207nm/0:48
Distance/Time
To Go:
Arrived

Flight Plot

Page will automatically refresh every two minutes.

Flight plan parsing failed; only flown route is shown


Map Options




Map Legend


Flown Route
Filed Route
Departure Airport
Arrival Airport
Navaid (VOR, NDB)
Fix

Horizontal Profiles

Position Reports

Time Latitude Longitude Heading Altitude Ground
Speed
12-Nov-18 16:47 32.667937 -114.599450 359 224ft 0kts
12-Nov-18 16:48 32.667937 -114.599450 359 224ft 0kts
12-Nov-18 16:49 32.667937 -114.599450 359 223ft 0kts
12-Nov-18 16:50 32.667937 -114.599450 359 223ft 0kts
12-Nov-18 16:51 32.667937 -114.599450 359 223ft 0kts
12-Nov-18 16:52 32.667937 -114.599450 359 223ft 0kts
12-Nov-18 16:53 32.667937 -114.599450 359 223ft 0kts
12-Nov-18 16:54 32.667937 -114.599450 359 223ft 0kts
12-Nov-18 16:55 32.667937 -114.599450 359 223ft 0kts
12-Nov-18 16:56 32.667937 -114.599450 359 223ft 0kts
12-Nov-18 16:57 32.667937 -114.599450 359 223ft 0kts
12-Nov-18 16:58 32.667937 -114.599450 359 223ft 0kts
12-Nov-18 16:59 32.667937 -114.599450 359 223ft 0kts
12-Nov-18 17:00 32.667937 -114.599450 359 223ft 0kts
12-Nov-18 17:01 32.667937 -114.599450 359 223ft 0kts
12-Nov-18 17:02 32.667937 -114.599450 359 223ft 0kts
12-Nov-18 17:03 32.667937 -114.599450 359 223ft 0kts
12-Nov-18 17:04 32.667937 -114.599450 359 223ft 0kts
12-Nov-18 17:05 32.667937 -114.599450 359 223ft 0kts
12-Nov-18 17:06 32.667937 -114.599450 359 223ft 0kts
12-Nov-18 17:07 32.667865 -114.599450 0 223ft 2kts
12-Nov-18 17:08 32.667556 -114.599450 359 223ft 0kts
12-Nov-18 17:09 32.667556 -114.599450 359 223ft 0kts
12-Nov-18 17:10 32.667557 -114.599450 359 223ft 0kts
12-Nov-18 17:11 32.667559 -114.599450 359 223ft 0kts
12-Nov-18 17:12 32.667270 -114.600816 270 223ft 15kts
12-Nov-18 17:13 32.666449 -114.604079 179 223ft 12kts
12-Nov-18 17:14 32.660139 -114.603958 179 223ft 29kts
12-Nov-18 17:15 32.653371 -114.603884 184 223ft 15kts
12-Nov-18 17:16 32.652520 -114.603815 358 223ft 0kts
12-Nov-18 17:17 32.653781 -114.603847 359 224ft 40kts
12-Nov-18 17:18 32.687657 -114.604057 0 1160ft 152kts
12-Nov-18 17:19 32.732710 -114.603480 2 3120ft 200kts
12-Nov-18 17:20 32.797748 -114.607773 353 6112ft 252kts
12-Nov-18 17:21 32.869235 -114.621756 353 9958ft 267kts
12-Nov-18 17:22 32.948786 -114.637072 351 12503ft 323kts
12-Nov-18 17:23 33.040520 -114.654678 351 15947ft 341kts
12-Nov-18 17:24 33.136271 -114.672981 351 19378ft 354kts
12-Nov-18 17:25 33.235480 -114.691934 351 22490ft 366kts
12-Nov-18 17:26 33.337604 -114.711466 351 25261ft 376kts
12-Nov-18 17:27 33.441805 -114.731497 350 27747ft 382kts
12-Nov-18 17:28 33.546893 -114.751770 350 28386ft 380kts
12-Nov-18 17:29 33.650855 -114.731289 16 28389ft 387kts
12-Nov-18 17:30 33.750986 -114.684536 17 28391ft 387kts
12-Nov-18 17:31 33.850789 -114.636406 17 28394ft 386kts
12-Nov-18 17:32 33.950478 -114.587841 17 28398ft 386kts
12-Nov-18 17:33 34.050083 -114.539106 18 28405ft 385kts
12-Nov-18 17:34 34.149084 -114.490405 18 28412ft 385kts
12-Nov-18 17:35 34.248226 -114.441461 18 28417ft 385kts
12-Nov-18 17:36 34.347588 -114.392265 18 28420ft 385kts
12-Nov-18 17:37 34.446752 -114.343035 18 28420ft 385kts
12-Nov-18 17:38 34.545698 -114.293782 18 28430ft 384kts
12-Nov-18 17:39 34.644679 -114.244384 18 28431ft 384kts
12-Nov-18 17:40 34.743218 -114.195078 18 28436ft 383kts
12-Nov-18 17:41 34.841932 -114.145554 18 28446ft 383kts
12-Nov-18 17:42 34.940506 -114.095971 18 28455ft 382kts
12-Nov-18 17:43 35.038853 -114.046492 18 28461ft 382kts
12-Nov-18 17:44 35.136616 -113.997011 18 28024ft 374kts
12-Nov-18 17:45 35.232615 -113.954030 0 25290ft 357kts
12-Nov-18 17:46 35.325180 -113.995255 332 22801ft 361kts
12-Nov-18 17:47 35.406343 -114.069400 326 20719ft 361kts
12-Nov-18 17:48 35.485004 -114.142872 326 18723ft 351kts
12-Nov-18 17:49 35.561884 -114.214285 326 16700ft 337kts
12-Nov-18 17:50 35.629017 -114.277088 326 15480ft 281kts
12-Nov-18 17:51 35.690879 -114.335126 326 13272ft 278kts
12-Nov-18 17:52 35.753784 -114.388365 338 11945ft 269kts
12-Nov-18 17:53 35.823607 -114.421467 342 11461ft 271kts
12-Nov-18 17:54 35.894431 -114.454508 341 10999ft 273kts
12-Nov-18 17:55 35.965559 -114.487853 341 10495ft 274kts
12-Nov-18 17:56 36.029495 -114.523518 316 10034ft 239kts
12-Nov-18 17:57 36.051962 -114.601148 284 9233ft 244kts
12-Nov-18 17:58 36.065502 -114.683025 283 8402ft 239kts
12-Nov-18 17:59 36.073893 -114.763763 272 7783ft 231kts
12-Nov-18 18:00 36.073894 -114.839277 271 6640ft 212kts
12-Nov-18 18:01 36.073838 -114.910623 272 5542ft 200kts
12-Nov-18 18:02 36.073785 -114.974283 271 4551ft 172kts
12-Nov-18 18:03 36.073738 -115.029872 271 3700ft 154kts
12-Nov-18 18:04 36.073696 -115.080066 271 2920ft 135kts
12-Nov-18 18:05 36.073570 -115.126203 274 2209ft 136kts
12-Nov-18 18:06 36.074379 -115.144881 295 2189ft 12kts
12-Nov-18 18:07 36.075621 -115.146427 358 2189ft 2kts
12-Nov-18 18:08 36.078491 -115.146939 95 2189ft 10kts
12-Nov-18 18:09 36.078234 -115.140900 90 2189ft 18kts
12-Nov-18 18:10 36.079787 -115.139191 323 2189ft 5kts
12-Nov-18 18:11 36.080040 -115.139408 324 2189ft 0kts

Navigation Log

Ident Type
Flight plan parsing failed, navigation log unavailable